Time;durP1;ratioP1;P1;durP2;ratioP2;P2;SDS_P1;SDS_P2;PMS_P1;PMS_P2;Temp;Humidity;BMP_temperature;BMP_pressure;BME280_temperature;BME280_humidity;BME280_pressure;Samples;Min_cycle;Max_cycle;Signal;HPM_P1;HPM_P2
2021/07/08 00:01:44;;;;;;;2.05;1.88;;;22.80;99.90;;;;;;5035450;28;20633;-66
2021/07/08 00:04:10;;;;;;;2.00;1.70;;;22.60;99.90;;;;;;5036135;28;20748;-63
2021/07/08 00:06:36;;;;;;;2.42;2.00;;;22.60;99.90;;;;;;5033969;28;20220;-67
2021/07/08 00:09:05;;;;;;;2.97;2.20;;;22.40;99.90;;;;;;5035213;28;20197;-67
2021/07/08 00:11:30;;;;;;;6.05;2.45;;;22.40;99.90;;;;;;5035563;28;20263;-63
2021/07/08 00:13:56;;;;;;;2.50;2.30;;;22.20;99.90;;;;;;5026343;28;20230;-66
2021/07/08 00:16:22;;;;;;;3.33;2.20;;;22.10;99.90;;;;;;5015550;28;20197;-66
2021/07/08 00:18:47;;;;;;;2.78;2.20;;;22.10;99.90;;;;;;5015783;28;20197;-67
2021/07/08 00:21:13;;;;;;;2.30;2.05;;;22.00;99.90;;;;;;5015665;28;20167;-65
2021/07/08 00:23:38;;;;;;;2.35;2.15;;;22.00;99.90;;;;;;5014865;28;20653;-65
2021/07/08 00:26:04;;;;;;;6.22;1.90;;;22.10;99.90;;;;;;5013667;28;20227;-64
2021/07/08 00:28:30;;;;;;;2.03;1.92;;;22.20;99.90;;;;;;5028496;28;20217;-65
2021/07/08 00:30:56;;;;;;;3.15;2.00;;;22.30;99.90;;;;;;5027616;28;20215;-65
2021/07/08 00:33:21;;;;;;;2.10;1.83;;;22.40;99.90;;;;;;5013227;28;20197;-65
2021/07/08 00:35:48;;;;;;;2.80;1.75;;;22.50;99.90;;;;;;5012389;28;20256;-64
2021/07/08 00:38:14;;;;;;;2.22;1.60;;;22.50;99.90;;;;;;5012239;28;20548;-65
2021/07/08 00:40:40;;;;;;;1.80;1.70;;;22.60;99.90;;;;;;5012269;28;20726;-65
2021/07/08 00:43:08;;;;;;;1.83;1.60;;;22.60;99.90;;;;;;5012728;28;20191;-65
2021/07/08 00:45:34;;;;;;;1.98;1.88;;;22.60;99.90;;;;;;5013898;28;20178;-63
2021/07/08 00:48:00;;;;;;;2.47;1.95;;;22.60;99.90;;;;;;5013534;28;20779;-64
2021/07/08 00:50:32;;;;;;;3.75;2.20;;;22.60;99.90;;;;;;5029246;28;20636;-66
2021/07/08 00:52:59;;;;;;;3.47;1.67;;;22.60;99.90;;;;;;5015238;28;20178;-63
2021/07/08 00:55:25;;;;;;;2.05;1.58;;;22.60;99.90;;;;;;5014085;28;20190;-63
2021/07/08 00:57:54;;;;;;;2.05;1.70;;;22.50;99.90;;;;;;5030460;28;20199;-66
2021/07/08 01:00:26;;;;;;;1.90;1.75;;;22.40;99.90;;;;;;5015361;28;20175;-63
2021/07/08 01:02:52;;;;;;;3.42;1.90;;;22.40;99.90;;;;;;5013550;28;20506;-63
2021/07/08 01:05:22;;;;;;;2.13;1.90;;;22.40;99.90;;;;;;5015731;28;20192;-65
2021/07/08 01:07:47;;;;;;;2.28;1.80;;;22.40;99.90;;;;;;5013848;28;20210;-66
2021/07/08 01:10:14;;;;;;;2.10;2.00;;;22.20;99.90;;;;;;5014923;28;20194;-66
2021/07/08 01:12:40;;;;;;;2.13;2.03;;;22.10;99.90;;;;;;5013656;28;20685;-65
2021/07/08 01:15:08;;;;;;;3.00;2.03;;;22.00;99.90;;;;;;5013904;28;20213;-65
2021/07/08 01:17:34;;;;;;;2.28;2.05;;;21.80;99.90;;;;;;5014082;28;20194;-66
2021/07/08 01:19:59;;;;;;;3.25;2.08;;;21.80;99.90;;;;;;5014626;28;20176;-63
2021/07/08 01:22:25;;;;;;;2.45;1.95;;;21.70;99.90;;;;;;5013146;28;20312;-66
2021/07/08 01:24:51;;;;;;;2.30;2.08;;;21.40;99.90;;;;;;5014932;28;20215;-65
2021/07/08 01:27:16;;;;;;;4.17;1.90;;;21.40;99.90;;;;;;5014450;28;20550;-64
2021/07/08 01:29:42;;;;;;;2.23;1.93;;;21.40;99.90;;;;;;5013420;28;20177;-65
2021/07/08 01:32:07;;;;;;;2.35;1.95;;;21.60;99.90;;;;;;5013525;28;20191;-59
2021/07/08 01:34:33;;;;;;;2.00;1.85;;;21.80;99.90;;;;;;5013943;28;20653;-60
2021/07/08 01:36:59;;;;;;;2.40;2.20;;;21.90;99.90;;;;;;5014349;28;20279;-66
2021/07/08 01:39:25;;;;;;;2.13;2.00;;;21.80;99.90;;;;;;5013348;28;20222;-60
2021/07/08 01:41:50;;;;;;;4.40;2.10;;;21.60;99.90;;;;;;5014228;28;20176;-61
2021/07/08 01:44:17;;;;;;;2.10;1.90;;;21.40;99.90;;;;;;5013605;28;20203;-64
2021/07/08 01:46:43;;;;;;;1.85;1.73;;;21.20;99.90;;;;;;5014112;28;20180;-64
2021/07/08 01:49:09;;;;;;;2.93;1.93;;;21.30;99.90;;;;;;5014157;28;20692;-62
2021/07/08 01:51:35;;;;;;;2.43;2.23;;;21.30;99.90;;;;;;5013209;28;20200;-61
2021/07/08 01:54:03;;;;;;;2.67;2.03;;;21.40;99.90;;;;;;5014134;28;20204;-61
2021/07/08 01:56:29;;;;;;;3.47;2.30;;;21.50;99.90;;;;;;5014518;28;20177;-63
2021/07/08 01:58:55;;;;;;;2.40;2.20;;;21.60;99.90;;;;;;5014088;28;20219;-65
2021/07/08 02:01:22;;;;;;;3.00;2.80;;;21.70;99.90;;;;;;5014222;28;20556;-64
2021/07/08 02:03:48;;;;;;;3.50;3.20;;;21.70;99.90;;;;;;5013184;28;20519;-65
2021/07/08 02:06:14;;;;;;;2.40;2.20;;;21.60;99.90;;;;;;5014466;28;20231;-66
2021/07/08 02:08:40;;;;;;;2.60;2.40;;;21.50;99.90;;;;;;5012968;28;20201;-65
2021/07/08 02:11:07;;;;;;;2.30;2.13;;;21.40;99.90;;;;;;5014208;28;20184;-65
2021/07/08 02:13:34;;;;;;;2.50;2.10;;;21.30;99.90;;;;;;5014404;28;20247;-66
2021/07/08 02:16:02;;;;;;;1.70;1.60;;;21.10;99.90;;;;;;5012912;28;20188;-65
2021/07/08 02:18:28;;;;;;;2.00;1.90;;;21.00;99.90;;;;;;5013938;28;20202;-63
2021/07/08 02:20:53;;;;;;;2.80;1.80;;;20.90;99.90;;;;;;5012866;28;20255;-58
2021/07/08 02:23:19;;;;;;;2.03;1.90;;;20.80;99.90;;;;;;5029488;28;20182;-62
2021/07/08 02:25:45;;;;;;;2.43;2.23;;;20.70;99.90;;;;;;5014271;28;20260;-65
2021/07/08 02:28:11;;;;;;;2.90;1.60;;;20.70;99.90;;;;;;5013884;28;20649;-62
2021/07/08 02:30:37;;;;;;;2.13;2.00;;;21.90;99.90;;;;;;5016205;28;20205;-65
2021/07/08 02:33:02;;;;;;;1.97;1.50;;;20.70;99.90;;;;;;5016322;28;20266;-57
2021/07/08 02:35:28;;;;;;;2.03;1.70;;;20.70;99.90;;;;;;5018164;28;20167;-63
2021/07/08 02:37:54;;;;;;;1.83;1.63;;;20.70;99.90;;;;;;5017479;28;20192;-60
2021/07/08 02:40:32;;;;;;;2.60;1.40;;;20.80;99.90;;;;;;5017446;28;20168;-67
2021/07/08 02:42:59;;;;;;;1.30;1.20;;;20.80;99.90;;;;;;5017159;28;20583;-59
2021/07/08 02:45:28;;;;;;;1.90;1.40;;;20.70;99.90;;;;;;5017744;28;20168;-61
2021/07/08 02:47:55;;;;;;;2.40;1.53;;;20.50;99.90;;;;;;5017405;28;20184;-65
2021/07/08 02:50:22;;;;;;;1.73;1.43;;;20.30;99.90;;;;;;5017637;28;20617;-65
2021/07/08 02:52:49;;;;;;;1.90;1.50;;;20.00;99.90;;;;;;5016141;28;20189;-65
2021/07/08 02:55:15;;;;;;;2.23;1.27;;;20.00;99.90;;;;;;5017516;28;20192;-65
2021/07/08 02:57:40;;;;;;;1.10;1.10;;;20.10;99.90;;;;;;5017699;28;20239;-61
2021/07/08 03:00:09;;;;;;;2.07;1.50;;;20.40;99.90;;;;;;5016332;28;20200;-61
2021/07/08 03:02:35;;;;;;;1.30;1.20;;;20.60;99.90;;;;;;5017043;28;20161;-61
2021/07/08 03:05:02;;;;;;;1.60;1.50;;;20.80;99.90;;;;;;5017457;28;20172;-67
2021/07/08 03:07:27;;;;;;;2.30;1.63;;;21.00;99.90;;;;;;5015977;28;20205;-61
2021/07/08 03:09:53;;;;;;;1.60;1.50;;;21.00;99.90;;;;;;5017082;28;20184;-66
2021/07/08 03:12:18;;;;;;;1.90;1.80;;;21.00;99.90;;;;;;5015850;28;20188;-66
2021/07/08 03:14:44;;;;;;;3.53;1.90;;;21.00;99.90;;;;;;5017222;28;20205;-66
2021/07/08 03:17:09;;;;;;;2.40;1.90;;;21.10;99.90;;;;;;5016632;28;20197;-57
2021/07/08 03:19:35;;;;;;;1.53;1.33;;;21.00;99.90;;;;;;5016866;28;20182;-67
2021/07/08 03:22:01;;;;;;;2.97;1.80;;;21.00;99.90;;;;;;5016012;28;20173;-64
2021/07/08 03:24:26;;;;;;;1.93;1.50;;;20.90;99.90;;;;;;5016046;28;20171;-61
2021/07/08 03:26:53;;;;;;;2.00;1.57;;;20.90;99.90;;;;;;5017249;28;20275;-60
2021/07/08 03:29:19;;;;;;;1.47;1.30;;;20.90;99.90;;;;;;5015880;28;20212;-66
2021/07/08 03:31:44;;;;;;;1.93;1.30;;;20.90;99.90;;;;;;5016003;28;20223;-66
2021/07/08 03:34:10;;;;;;;4.20;1.53;;;20.90;99.90;;;;;;5016747;28;20193;-66
2021/07/08 03:36:35;;;;;;;1.70;1.60;;;21.00;99.90;;;;;;5015389;28;20204;-62
2021/07/08 03:39:01;;;;;;;1.60;1.50;;;21.10;99.90;;;;;;5016496;28;20176;-61
2021/07/08 03:41:26;;;;;;;1.10;1.10;;;21.00;99.90;;;;;;5016399;28;20169;-63
2021/07/08 03:43:52;;;;;;;1.73;1.40;;;21.10;99.90;;;;;;5015669;28;20181;-66
2021/07/08 03:46:18;;;;;;;1.57;1.47;;;21.10;99.90;;;;;;5016302;28;20227;-61
2021/07/08 03:48:43;;;;;;;2.37;1.80;;;21.20;99.90;;;;;;5016239;28;20201;-62
2021/07/08 03:51:09;;;;;;;1.50;1.40;;;21.20;99.90;;;;;;5016526;28;20180;-62
2021/07/08 03:53:34;;;;;;;1.43;1.33;;;21.20;99.90;;;;;;5015094;28;20287;-61
2021/07/08 03:56:00;;;;;;;1.57;1.47;;;21.30;99.90;;;;;;5016343;28;20260;-61
2021/07/08 03:58:25;;;;;;;1.90;1.40;;;21.30;99.90;;;;;;5015182;28;20184;-61
2021/07/08 04:00:52;;;;;;;1.20;1.20;;;21.30;99.90;;;;;;5016146;28;20195;-63
2021/07/08 04:03:18;;;;;;;1.37;1.27;;;21.40;99.90;;;;;;5014774;28;20239;-61
2021/07/08 04:05:45;;;;;;;1.23;1.13;;;21.50;99.90;;;;;;5016649;28;20203;-66
2021/07/08 04:08:13;;;;;;;1.40;1.27;;;21.50;99.90;;;;;;5015412;28;20189;-65
2021/07/08 04:10:40;;;;;;;1.60;1.50;;;21.60;99.90;;;;;;5015177;28;20192;-60
2021/07/08 04:13:12;;;;;;;1.80;1.70;;;21.60;99.90;;;;;;5015643;28;20169;-67
2021/07/08 04:15:38;;;;;;;3.13;1.83;;;21.60;99.90;;;;;;5015744;28;20199;-66
2021/07/08 04:18:04;;;;;;;1.80;1.70;;;21.60;99.90;;;;;;5015739;28;20193;-65
2021/07/08 04:20:31;;;;;;;1.67;1.57;;;21.70;99.90;;;;;;5015602;28;20235;-66
2021/07/08 04:22:57;;;;;;;2.27;2.07;;;21.70;99.90;;;;;;5014361;28;20196;-62
2021/07/08 04:25:23;;;;;;;1.73;1.63;;;21.80;99.90;;;;;;5015629;28;20181;-65
2021/07/08 04:27:49;;;;;;;1.50;1.40;;;21.80;99.90;;;;;;5015250;28;20200;-63
2021/07/08 04:30:18;;;;;;;1.90;1.30;;;21.90;99.90;;;;;;5015178;28;20243;-66
2021/07/08 04:32:44;;;;;;;1.60;1.50;;;21.90;99.90;;;;;;5015089;28;20184;-66
2021/07/08 04:35:11;;;;;;;1.80;1.70;;;21.90;99.90;;;;;;5015858;28;20239;-66
2021/07/08 04:37:41;;;;;;;1.70;1.60;;;21.90;99.90;;;;;;5014118;28;20214;-61
2021/07/08 04:40:13;;;;;;;1.73;1.63;;;21.90;99.90;;;;;;5016431;28;20177;-60
2021/07/08 04:42:39;;;;;;;1.60;1.50;;;22.00;99.90;;;;;;5033939;28;20509;-61
2021/07/08 04:45:07;;;;;;;4.23;1.57;;;22.00;99.90;;;;;;5034988;28;20571;-61
2021/07/08 04:47:35;;;;;;;1.50;1.30;;;21.90;99.90;;;;;;5034650;28;20187;-62
2021/07/08 04:50:02;;;;;;;1.73;1.63;;;22.00;99.90;;;;;;5036055;28;20176;-63
2021/07/08 04:52:27;;;;;;;1.70;1.60;;;21.90;99.90;;;;;;5033710;28;20207;-56
2021/07/08 04:54:52;;;;;;;3.45;1.88;;;21.90;99.90;;;;;;5034669;28;20580;-64
2021/07/08 04:57:18;;;;;;;2.50;1.30;;;21.90;99.90;;;;;;5035224;28;20699;-56
2021/07/08 04:59:44;;;;;;;3.17;1.50;;;22.00;99.90;;;;;;5033789;28;20204;-65
2021/07/08 05:02:10;;;;;;;1.27;1.20;;;22.00;99.90;;;;;;5034611;28;20218;-60
2021/07/08 05:04:35;;;;;;;2.78;1.60;;;22.00;99.90;;;;;;5035092;28;20183;-62
2021/07/08 05:07:01;;;;;;;1.80;1.70;;;22.00;99.90;;;;;;5033579;28;20664;-61
2021/07/08 05:09:26;;;;;;;2.85;2.22;;;21.90;99.90;;;;;;5034523;28;20643;-58
2021/07/08 05:11:52;;;;;;;2.05;1.95;;;22.00;99.90;;;;;;5033675;28;20601;-59
2021/07/08 05:14:18;;;;;;;2.70;2.13;;;21.90;99.90;;;;;;5034305;28;20204;-65
2021/07/08 05:16:43;;;;;;;2.78;2.30;;;21.90;99.90;;;;;;5034173;28;20169;-64
2021/07/08 05:19:09;;;;;;;2.95;1.98;;;21.90;99.90;;;;;;5034219;28;20172;-60
2021/07/08 05:21:37;;;;;;;2.17;1.98;;;22.10;99.90;;;;;;5034008;28;20210;-62
2021/07/08 05:24:04;;;;;;;1.90;1.70;;;22.00;99.90;;;;;;5033486;28;20243;-65
2021/07/08 05:26:29;;;;;;;2.15;1.77;;;22.00;99.90;;;;;;5034568;28;20657;-62
2021/07/08 05:28:55;;;;;;;2.27;1.50;;;22.20;99.90;;;;;;5033274;28;20216;-65
2021/07/08 05:31:20;;;;;;;2.20;1.20;;;22.30;99.90;;;;;;5034091;28;20173;-60
2021/07/08 05:33:46;;;;;;;1.80;1.50;;;22.40;99.90;;;;;;5034638;28;20193;-65
2021/07/08 05:36:11;;;;;;;1.30;1.20;;;22.40;99.90;;;;;;5034034;28;20204;-64
2021/07/08 05:38:37;;;;;;;2.25;1.35;;;22.50;99.90;;;;;;5034308;28;20189;-61
2021/07/08 05:41:03;;;;;;;1.27;1.20;;;22.40;99.90;;;;;;5033728;28;20169;-65
2021/07/08 05:43:28;;;;;;;1.48;1.38;;;22.50;99.90;;;;;;5032975;28;20289;-60
2021/07/08 05:45:54;;;;;;;1.73;1.40;;;22.60;99.90;;;;;;5033877;28;20221;-61
2021/07/08 05:48:19;;;;;;;2.03;1.40;;;22.70;99.90;;;;;;5032849;28;20210;-64
2021/07/08 05:50:46;;;;;;;2.47;1.00;;;22.80;99.90;;;;;;5033792;28;20191;-58
2021/07/08 05:53:11;;;;;;;1.17;1.08;;;22.80;99.90;;;;;;5033811;28;20700;-64
2021/07/08 05:55:37;;;;;;;4.00;1.45;;;22.90;99.90;;;;;;5032744;28;20268;-65
2021/07/08 05:58:02;;;;;;;0.90;0.90;;;23.00;99.90;;;;;;5034102;28;20188;-65
2021/07/08 06:00:28;;;;;;;1.05;1.05;;;23.10;99.90;;;;;;5032741;28;20255;-65
2021/07/08 06:02:54;;;;;;;1.20;1.10;;;23.10;99.90;;;;;;5033537;28;20180;-62
2021/07/08 06:05:19;;;;;;;1.30;1.20;;;23.20;99.90;;;;;;5035236;28;20215;-66
2021/07/08 06:07:45;;;;;;;1.13;0.98;;;23.20;99.90;;;;;;5037978;28;20279;-66
2021/07/08 06:10:11;;;;;;;1.50;1.00;;;23.30;99.90;;;;;;5038133;28;20528;-66
2021/07/08 06:12:38;;;;;;;2.00;1.08;;;23.30;99.90;;;;;;5036581;28;20188;-61
2021/07/08 06:15:05;;;;;;;1.88;1.02;;;23.40;99.90;;;;;;5037640;28;20214;-61
2021/07/08 06:17:31;;;;;;;0.95;0.95;;;23.50;99.90;;;;;;5037742;28;20212;-61
2021/07/08 06:19:56;;;;;;;1.02;0.95;;;23.50;99.90;;;;;;5036341;28;20187;-63
2021/07/08 06:22:22;;;;;;;1.23;0.90;;;23.50;99.90;;;;;;5036570;28;20167;-65
2021/07/08 06:24:48;;;;;;;1.83;0.90;;;23.60;99.90;;;;;;5036915;28;20180;-64
2021/07/08 06:27:13;;;;;;;1.38;0.80;;;23.70;99.90;;;;;;5037407;28;20274;-62
2021/07/08 06:29:39;;;;;;;0.73;0.73;;;23.80;99.90;;;;;;5037430;28;20245;-65
2021/07/08 06:32:05;;;;;;;1.60;0.70;;;24.00;99.90;;;;;;5036232;28;20172;-65
2021/07/08 06:34:30;;;;;;;0.85;0.85;;;24.00;99.90;;;;;;5037270;28;20192;-65
2021/07/08 06:36:55;;;;;;;0.80;0.80;;;24.00;99.90;;;;;;5037308;28;20230;-65
2021/07/08 06:39:21;;;;;;;0.70;0.70;;;24.10;99.90;;;;;;5037725;28;20203;-62
2021/07/08 06:41:47;;;;;;;0.70;0.70;;;24.30;99.90;;;;;;5036223;28;20279;-63
2021/07/08 06:44:12;;;;;;;0.73;0.73;;;24.30;99.90;;;;;;5034517;28;20384;-65
2021/07/08 06:46:38;;;;;;;0.80;0.80;;;24.30;99.90;;;;;;5035093;28;20624;-65
2021/07/08 06:49:04;;;;;;;0.57;0.57;;;24.40;99.90;;;;;;5035752;28;20698;-64
2021/07/08 06:51:30;;;;;;;1.00;0.80;;;24.40;99.90;;;;;;5036842;28;20179;-56
2021/07/08 06:53:56;;;;;;;1.85;0.70;;;24.50;99.90;;;;;;5034028;28;20655;-62
2021/07/08 06:56:23;;;;;;;0.82;0.60;;;24.50;99.90;;;;;;5036776;28;20207;-66
2021/07/08 06:58:48;;;;;;;1.67;0.70;;;24.50;99.90;;;;;;5035847;28;20270;-65
2021/07/08 07:01:15;;;;;;;1.15;0.77;;;24.50;99.90;;;;;;5034093;28;20176;-65
2021/07/08 07:03:40;;;;;;;2.33;0.90;;;24.70;99.90;;;;;;5035306;28;20835;-67
2021/07/08 07:06:06;;;;;;;1.83;1.17;;;24.80;99.90;;;;;;5035398;28;20281;-63
2021/07/08 07:08:33;;;;;;;1.38;0.80;;;25.00;99.90;;;;;;5036179;28;20210;-66
2021/07/08 07:10:59;;;;;;;0.63;0.63;;;24.90;99.90;;;;;;5035549;28;20191;-65
2021/07/08 07:13:24;;;;;;;1.02;0.80;;;25.00;99.90;;;;;;5037060;28;20172;-65
2021/07/08 07:15:50;;;;;;;0.90;0.80;;;25.00;99.90;;;;;;5036214;28;20175;-66
2021/07/08 07:18:16;;;;;;;1.17;0.88;;;24.70;99.90;;;;;;5035535;28;20199;-66
2021/07/08 07:20:41;;;;;;;1.60;0.98;;;24.70;99.90;;;;;;5036921;28;20222;-62
2021/07/08 07:23:07;;;;;;;1.30;0.98;;;24.80;99.90;;;;;;5035492;28;20540;-65
2021/07/08 07:25:39;;;;;;;1.42;0.90;;;24.90;99.90;;;;;;5036909;28;20667;-65
2021/07/08 07:28:05;;;;;;;1.38;0.95;;;25.00;99.90;;;;;;5036406;28;20218;-66
2021/07/08 07:30:30;;;;;;;1.15;1.00;;;24.80;99.90;;;;;;5036978;28;20564;-66
2021/07/08 07:32:56;;;;;;;1.65;0.90;;;24.30;99.90;;;;;;5035045;28;20215;-65
2021/07/08 07:35:22;;;;;;;1.85;0.70;;;24.20;99.90;;;;;;5035882;28;20226;-65
2021/07/08 07:37:49;;;;;;;0.80;0.80;;;24.00;99.90;;;;;;5034582;28;20199;-66
2021/07/08 07:40:15;;;;;;;2.05;1.15;;;24.20;99.90;;;;;;5033942;28;20255;-65
2021/07/08 07:42:41;;;;;;;1.55;0.95;;;24.40;99.90;;;;;;5034510;28;20565;-65
2021/07/08 07:45:08;;;;;;;1.00;0.90;;;24.60;99.90;;;;;;5034338;28;20172;-64
2021/07/08 07:47:34;;;;;;;2.50;1.05;;;24.80;99.90;;;;;;5033973;28;20192;-62
2021/07/08 07:50:00;;;;;;;2.25;0.93;;;25.00;99.90;;;;;;5035788;28;20215;-65
2021/07/08 07:52:26;;;;;;;0.95;0.95;;;25.10;99.90;;;;;;5034429;28;20270;-65
2021/07/08 07:54:52;;;;;;;0.90;0.90;;;25.10;99.90;;;;;;5034586;28;20678;-62
2021/07/08 07:57:18;;;;;;;2.35;1.00;;;25.00;99.90;;;;;;5033703;28;20676;-65
2021/07/08 07:59:43;;;;;;;1.23;1.13;;;25.30;99.90;;;;;;5034501;28;20282;-63
2021/07/08 08:02:15;;;;;;;0.80;0.80;;;25.20;99.90;;;;;;5033549;28;20258;-64
2021/07/08 08:05:08;;;;;;;1.73;1.13;;;25.40;99.90;;;;;;5033068;28;20206;-66
2021/07/08 08:10:20;;;;;;;1.20;1.10;;;25.90;99.90;;;;;;5033000;28;20242;-65
2021/07/08 08:12:46;;;;;;;1.08;1.08;;;25.80;99.90;;;;;;5019817;28;20200;-65
2021/07/08 08:15:12;;;;;;;1.15;1.13;;;26.00;99.90;;;;;;5015661;28;20635;-60
2021/07/08 08:17:38;;;;;;;1.25;1.08;;;26.00;99.90;;;;;;5015539;28;20649;-63
2021/07/08 08:20:05;;;;;;;1.35;1.25;;;26.00;99.90;;;;;;5015585;28;20296;-65
2021/07/08 08:22:31;;;;;;;1.13;1.02;;;26.30;99.90;;;;;;5014421;28;20847;-63
2021/07/08 08:24:57;;;;;;;1.88;1.23;;;26.50;99.90;;;;;;5015651;28;20177;-65
2021/07/08 08:27:22;;;;;;;2.08;1.60;;;26.60;99.90;;;;;;5014691;28;20264;-66
2021/07/08 08:29:48;;;;;;;1.08;0.95;;;26.50;99.90;;;;;;5014896;28;20351;-65
2021/07/08 08:32:14;;;;;;;1.00;1.00;;;26.40;99.90;;;;;;5015366;28;20172;-64
2021/07/08 08:34:39;;;;;;;0.85;0.80;;;26.20;99.90;;;;;;5014232;28;20220;-64
2021/07/08 08:37:05;;;;;;;2.67;1.10;;;25.80;99.90;;;;;;5015879;28;20541;-65
2021/07/08 08:39:31;;;;;;;1.40;1.30;;;25.60;99.90;;;;;;5015391;28;20168;-62
2021/07/08 08:41:57;;;;;;;1.25;1.15;;;25.30;99.90;;;;;;5014425;28;20177;-66
2021/07/08 08:44:23;;;;;;;1.48;1.15;;;25.40;99.90;;;;;;5030457;28;20180;-66
2021/07/08 08:46:50;;;;;;;1.33;1.23;;;25.40;99.90;;;;;;5015001;28;20169;-65
2021/07/08 08:49:15;;;;;;;1.27;1.17;;;25.50;99.90;;;;;;5015848;28;20609;-64
2021/07/08 08:51:42;;;;;;;3.33;1.55;;;25.90;99.90;;;;;;5015529;28;20204;-65
2021/07/08 08:54:08;;;;;;;1.17;1.15;;;26.10;99.90;;;;;;5014000;28;20259;-66
2021/07/08 08:56:33;;;;;;;2.60;1.50;;;26.00;99.90;;;;;;5015117;28;20173;-66
2021/07/08 08:58:59;;;;;;;1.95;1.70;;;25.90;99.90;;;;;;5022843;28;20188;-61
2021/07/08 09:01:24;;;;;;;1.40;1.30;;;26.00;99.90;;;;;;5033901;28;20176;-66
2021/07/08 09:03:50;;;;;;;1.67;1.42;;;26.20;99.90;;;;;;5034385;28;20180;-61
2021/07/08 09:06:16;;;;;;;1.45;1.35;;;26.40;99.90;;;;;;5033439;28;20207;-65
2021/07/08 09:08:45;;;;;;;1.48;1.38;;;26.60;99.90;;;;;;5031791;28;20215;-64
2021/07/08 09:11:13;;;;;;;1.05;1.05;;;26.70;99.90;;;;;;5028766;28;20227;-65
2021/07/08 09:13:41;;;;;;;1.77;1.42;;;26.90;99.90;;;;;;5018410;28;20269;-65
2021/07/08 09:16:12;;;;;;;1.88;1.20;;;26.70;99.90;;;;;;5032956;28;20195;-64
2021/07/08 09:18:38;;;;;;;1.30;1.30;;;26.70;99.90;;;;;;5021195;28;20665;-65
2021/07/08 09:21:21;;;;;;;1.20;1.20;;;26.60;99.90;;;;;;5014108;28;20169;-64
2021/07/08 09:24:11;;;;;;;2.90;1.30;;;26.40;99.90;;;;;;5013994;28;20549;-62
2021/07/08 09:26:39;;;;;;;1.50;1.40;;;26.60;99.90;;;;;;5013063;28;20195;-62
2021/07/08 09:29:07;;;;;;;3.60;1.42;;;26.70;99.90;;;;;;5014415;28;20183;-65
2021/07/08 09:31:35;;;;;;;1.33;1.30;;;26.90;99.90;;;;;;5014516;28;20211;-65
2021/07/08 09:34:25;;;;;;;1.65;1.55;;;27.00;99.90;;;;;;5014955;28;20270;-66
2021/07/08 09:37:15;;;;;;;1.50;1.40;;;26.80;99.90;;;;;;5013459;28;20197;-66
2021/07/08 09:39:56;;;;;;;1.17;1.15;;;26.80;99.90;;;;;;5014190;28;20161;-62
2021/07/08 09:42:50;;;;;;;1.98;1.50;;;27.10;99.90;;;;;;5014015;28;20180;-64
2021/07/08 09:45:18;;;;;;;1.40;1.30;;;27.60;99.90;;;;;;5012707;28;20563;-66
2021/07/08 09:47:46;;;;;;;1.58;1.38;;;27.90;99.90;;;;;;5010799;28;20204;-64
2021/07/08 09:50:18;;;;;;;2.40;1.60;;;27.40;99.90;;;;;;5012232;28;20185;-64
2021/07/08 09:53:11;;;;;;;1.40;1.30;;;27.00;99.90;;;;;;5012240;28;20187;-64
2021/07/08 09:58:56;;;;;;;1.65;1.55;;;27.20;99.90;;;;;;5012065;28;20191;-66
2021/07/08 10:01:22;;;;;;;1.75;1.60;;;27.30;99.90;;;;;;5012170;28;20196;-61
2021/07/08 10:03:49;;;;;;;1.40;1.30;;;27.30;99.90;;;;;;5011001;28;20200;-64
2021/07/08 10:06:15;;;;;;;1.90;1.65;;;27.40;99.90;;;;;;5011912;28;20269;-58
2021/07/08 10:08:41;;;;;;;1.63;1.52;;;27.50;99.90;;;;;;5010661;28;20215;-66
2021/07/08 10:11:11;;;;;;;2.17;1.30;;;27.30;99.90;;;;;;5012114;28;20207;-60
2021/07/08 10:13:39;;;;;;;1.60;1.40;;;27.20;99.90;;;;;;5011139;28;20270;-64
2021/07/08 10:16:05;;;;;;;1.45;1.30;;;27.20;99.90;;;;;;5011846;28;20264;-64
2021/07/08 10:18:32;;;;;;;1.58;1.48;;;27.30;99.90;;;;;;5025463;28;20200;-64
2021/07/08 10:20:59;;;;;;;1.73;1.10;;;27.50;99.90;;;;;;5030852;28;20220;-64
2021/07/08 10:23:26;;;;;;;1.55;1.45;;;27.90;99.90;;;;;;5034088;28;20628;-64
2021/07/08 10:25:52;;;;;;;1.23;1.20;;;28.00;99.90;;;;;;5032725;28;20191;-64
2021/07/08 10:28:19;;;;;;;1.10;1.00;;;28.10;99.90;;;;;;5032615;28;20194;-64
2021/07/08 10:30:46;;;;;;;3.75;1.70;;;28.60;99.90;;;;;;5033056;28;20169;-60
2021/07/08 10:33:11;;;;;;;1.58;1.40;;;28.20;99.90;;;;;;5032216;28;20251;-61
2021/07/08 10:35:42;;;;;;;1.92;1.40;;;28.10;99.90;;;;;;5033107;28;20286;-63
2021/07/08 10:38:27;;;;;;;1.80;1.40;;;28.20;99.90;;;;;;5033929;28;20222;-64
2021/07/08 10:40:54;;;;;;;2.22;1.13;;;28.20;99.90;;;;;;5029414;28;20215;-63
2021/07/08 10:43:34;;;;;;;4.00;1.30;;;28.20;99.90;;;;;;5032115;28;20198;-64
2021/07/08 10:46:04;;;;;;;1.52;1.40;;;28.20;99.90;;;;;;5032993;28;20226;-64
2021/07/08 10:48:51;;;;;;;1.52;1.30;;;28.00;99.90;;;;;;5030800;28;20284;-65
2021/07/08 10:51:31;;;;;;;1.60;1.42;;;27.90;99.90;;;;;;5034340;28;20187;-63
2021/07/08 10:53:56;;;;;;;1.40;1.30;;;27.80;99.90;;;;;;5036957;28;20190;-61
2021/07/08 10:56:34;;;;;;;1.60;1.50;;;28.00;99.90;;;;;;5035700;28;20199;-64
2021/07/08 10:59:12;;;;;;;1.30;1.20;;;28.00;99.90;;;;;;5037233;28;20180;-64
2021/07/08 11:01:43;;;;;;;1.30;1.30;;;28.00;99.90;;;;;;5036033;28;20497;-65
2021/07/08 11:04:10;;;;;;;2.15;1.48;;;27.60;99.90;;;;;;5036041;28;20207;-64
2021/07/08 11:06:42;;;;;;;2.67;1.60;;;27.60;99.90;;;;;;5035304;28;20222;-64
2021/07/08 11:09:19;;;;;;;3.97;1.33;;;27.40;99.90;;;;;;5035299;28;20203;-63
2021/07/08 11:11:45;;;;;;;3.15;1.50;;;27.10;99.90;;;;;;5036207;28;20186;-64
2021/07/08 11:14:20;;;;;;;1.42;1.33;;;26.80;99.90;;;;;;5035348;28;20188;-64
2021/07/08 11:16:49;;;;;;;1.60;1.50;;;26.60;99.90;;;;;;5026073;28;20176;-65
2021/07/08 11:19:21;;;;;;;1.70;1.40;;;26.50;99.90;;;;;;5016461;28;20203;-66
2021/07/08 11:21:53;;;;;;;1.80;1.70;;;26.30;99.90;;;;;;5016724;28;20645;-65
2021/07/08 11:24:26;;;;;;;2.95;1.73;;;26.30;99.90;;;;;;5015392;28;20200;-64
2021/07/08 11:27:03;;;;;;;3.15;1.80;;;26.30;99.90;;;;;;5021079;28;20231;-63
2021/07/08 11:29:53;;;;;;;1.75;1.60;;;26.30;99.90;;;;;;5030852;28;20179;-65
2021/07/08 11:32:36;;;;;;;1.80;1.63;;;26.30;99.90;;;;;;5033853;28;20204;-61
2021/07/08 11:35:21;;;;;;;4.80;1.88;;;26.20;99.90;;;;;;5035183;28;20215;-64
2021/07/08 11:38:05;;;;;;;4.78;2.30;;;26.10;99.90;;;;;;5034612;28;20678;-66
2021/07/08 11:40:39;;;;;;;1.60;1.50;;;26.00;99.90;;;;;;5029333;28;20258;-65
2021/07/08 11:43:27;;;;;;;2.78;1.80;;;25.90;99.90;;;;;;5032156;28;20226;-66
2021/07/08 11:45:56;;;;;;;1.80;1.70;;;25.80;99.90;;;;;;5034474;28;20188;-65
2021/07/08 11:48:30;;;;;;;2.03;1.65;;;25.70;99.90;;;;;;5034946;28;20199;-64
2021/07/08 11:50:56;;;;;;;3.72;2.08;;;25.60;99.90;;;;;;5032271;28;20168;-64
2021/07/08 11:53:22;;;;;;;2.90;1.80;;;25.60;99.90;;;;;;5034641;28;20171;-64
2021/07/08 11:55:57;;;;;;;2.45;1.80;;;25.50;99.90;;;;;;5033661;28;20172;-64
2021/07/08 11:58:28;;;;;;;1.90;1.80;;;25.20;99.90;;;;;;5035347;28;20199;-63
2021/07/08 12:00:55;;;;;;;1.92;1.70;;;25.10;99.90;;;;;;5033656;28;20541;-63
2021/07/08 12:03:23;;;;;;;1.90;1.80;;;25.00;99.90;;;;;;5032133;28;20267;-63
2021/07/08 12:05:57;;;;;;;2.60;1.90;;;24.90;99.90;;;;;;5035570;28;20527;-64
2021/07/08 12:08:29;;;;;;;2.33;2.10;;;25.00;99.90;;;;;;5033467;28;20208;-63
2021/07/08 12:11:16;;;;;;;2.17;1.92;;;25.00;99.90;;;;;;5035255;28;20652;-65
2021/07/08 12:13:54;;;;;;;2.40;2.17;;;25.00;99.90;;;;;;5035256;28;20702;-64
2021/07/08 12:16:34;;;;;;;2.10;1.90;;;24.90;99.90;;;;;;5032357;28;20517;-64
2021/07/08 12:19:02;;;;;;;2.22;2.03;;;25.10;99.90;;;;;;5033918;28;20172;-66
2021/07/08 12:21:31;;;;;;;2.67;2.30;;;25.20;99.90;;;;;;5031851;28;20179;-64
2021/07/08 12:24:09;;;;;;;3.03;2.20;;;25.40;99.90;;;;;;5031490;28;20202;-61
2021/07/08 12:26:36;;;;;;;2.80;2.50;;;25.50;99.90;;;;;;5034949;28;20172;-65
2021/07/08 12:29:28;;;;;;;2.50;2.30;;;25.50;99.90;;;;;;5034418;28;20176;-64
2021/07/08 12:32:06;;;;;;;2.28;2.08;;;25.50;99.90;;;;;;5034561;28;20175;-63
2021/07/08 12:34:44;;;;;;;2.10;2.00;;;25.70;99.90;;;;;;5034924;28;20257;-59
2021/07/08 12:37:13;;;;;;;2.42;2.22;;;25.80;99.90;;;;;;5032881;28;20203;-64
2021/07/08 12:39:40;;;;;;;3.33;2.30;;;25.80;99.90;;;;;;5033387;28;20654;-63
2021/07/08 12:42:13;;;;;;;2.22;1.98;;;25.80;99.90;;;;;;5033969;28;20188;-64
2021/07/08 12:44:40;;;;;;;2.25;2.10;;;25.90;99.90;;;;;;5034457;28;20262;-65
2021/07/08 12:47:05;;;;;;;1.95;1.80;;;26.20;99.90;;;;;;5034482;28;20204;-63
2021/07/08 12:49:31;;;;;;;2.10;1.90;;;26.70;99.90;;;;;;5033767;28;20600;-65
2021/07/08 12:51:57;;;;;;;3.38;1.88;;;27.20;99.90;;;;;;5032938;28;20172;-66
2021/07/08 12:54:25;;;;;;;1.55;1.45;;;27.60;99.90;;;;;;5033910;28;20227;-62
2021/07/08 12:57:08;;;;;;;1.95;1.73;;;27.50;99.90;;;;;;5033354;28;20204;-65
2021/07/08 12:59:34;;;;;;;4.20;1.70;;;27.50;99.90;;;;;;5033843;28;20180;-60